createdAt,value
2019-04-29T00:00:42.398Z,5.20
2019-04-29T00:03:10.964Z,5.47
2019-04-29T00:05:39.469Z,5.23
2019-04-29T00:08:08.810Z,5.90
2019-04-29T00:10:37.236Z,6.80
2019-04-29T00:13:05.978Z,5.77
2019-04-29T00:15:47.875Z,6.73
2019-04-29T00:18:18.009Z,9.40
2019-04-29T00:20:48.107Z,5.50
2019-04-29T00:23:16.566Z,6.73
2019-04-29T00:25:45.035Z,5.37
2019-04-29T00:28:14.053Z,5.50
2019-04-29T00:30:42.456Z,5.47
2019-04-29T00:33:10.897Z,5.57
2019-04-29T00:35:39.367Z,4.43
2019-04-29T00:38:09.596Z,6.30
2019-04-29T00:40:55.910Z,6.47
2019-04-29T00:43:28.717Z,6.17
2019-04-29T00:45:57.161Z,8.50
2019-04-29T00:48:25.597Z,5.30
2019-04-29T00:50:54.106Z,5.90
2019-04-29T00:53:22.620Z,6.73
2019-04-29T00:55:51.974Z,4.63
2019-04-29T00:58:20.413Z,5.70
2019-04-29T01:00:48.894Z,6.17
2019-04-29T01:03:17.357Z,6.07
2019-04-29T01:05:45.845Z,33.80
2019-04-29T01:08:14.315Z,11.33
2019-04-29T01:10:42.869Z,5.17
2019-04-29T01:13:11.293Z,5.13
2019-04-29T01:15:39.778Z,4.90
2019-04-29T01:18:08.723Z,5.63
2019-04-29T01:20:37.227Z,5.40
2019-04-29T01:23:05.751Z,5.40
2019-04-29T01:25:34.300Z,5.60
2019-04-29T01:28:07.073Z,29.97
2019-04-29T01:30:41.291Z,6.60
2019-04-29T01:33:09.790Z,5.57
2019-04-29T01:35:38.196Z,5.37
2019-04-29T01:38:06.695Z,5.60
2019-04-29T01:40:36.811Z,6.43
2019-04-29T01:43:05.857Z,12.47
2019-04-29T01:45:34.281Z,6.27
2019-04-29T01:48:02.726Z,5.07
2019-04-29T01:50:31.146Z,5.23
2019-04-29T01:52:59.545Z,5.50
2019-04-29T01:55:27.981Z,5.40
2019-04-29T01:57:56.387Z,5.77
2019-04-29T02:00:24.827Z,8.93
2019-04-29T02:02:53.469Z,5.53
2019-04-29T02:05:22.067Z,18.30
2019-04-29T02:07:50.579Z,8.43
2019-04-29T02:10:20.660Z,5.20
2019-04-29T02:12:49.064Z,5.10
2019-04-29T02:15:17.636Z,5.70
2019-04-29T02:17:46.096Z,4.93
2019-04-29T02:20:14.634Z,5.27
2019-04-29T02:22:47.466Z,14.10
2019-04-29T02:25:20.107Z,9.40
2019-04-29T02:27:48.572Z,7.63
2019-04-29T02:30:31.605Z,18.23
2019-04-29T02:33:00.033Z,14.27
2019-04-29T02:35:28.445Z,8.73
2019-04-29T02:37:57.148Z,10.10
2019-04-29T02:40:27.220Z,8.50
2019-04-29T02:42:57.446Z,4.57
2019-04-29T02:45:27.522Z,5.63
2019-04-29T02:47:55.983Z,4.80
2019-04-29T02:50:24.427Z,5.37
2019-04-29T02:52:52.898Z,6.37
2019-04-29T02:55:23.000Z,5.93
2019-04-29T02:57:53.242Z,28.10
2019-04-29T03:00:41.646Z,6.93
2019-04-29T03:03:33.796Z,5.30
2019-04-29T03:06:03.575Z,5.93
2019-04-29T03:08:31.981Z,5.27
2019-04-29T03:11:00.376Z,5.23
2019-04-29T03:13:28.819Z,5.27
2019-04-29T03:15:57.293Z,5.17
2019-04-29T03:18:27.698Z,5.90
2019-04-29T03:21:09.480Z,5.03
2019-04-29T03:23:38.027Z,9.13
2019-04-29T03:26:06.551Z,4.40
2019-04-29T03:28:34.979Z,4.90
2019-04-29T03:31:03.579Z,4.77
2019-04-29T03:33:32.014Z,5.17
2019-04-29T03:36:00.417Z,23.63
2019-04-29T03:38:28.849Z,4.80
2019-04-29T03:40:57.290Z,5.10
2019-04-29T03:43:25.786Z,4.80
2019-04-29T03:45:56.195Z,5.60
2019-04-29T03:48:24.683Z,4.87
2019-04-29T03:50:53.148Z,4.27
2019-04-29T03:53:21.548Z,3.53
2019-04-29T03:55:51.680Z,4.40
2019-04-29T03:58:20.157Z,6.20
2019-04-29T04:00:50.200Z,6.77
2019-04-29T04:03:20.259Z,5.47
2019-04-29T04:05:50.332Z,4.93
2019-04-29T04:08:20.427Z,4.90
2019-04-29T04:10:51.518Z,4.43
2019-04-29T04:13:19.936Z,4.60
2019-04-29T04:15:48.376Z,3.80
2019-04-29T04:18:26.917Z,3.63
2019-04-29T04:20:55.520Z,4.50
2019-04-29T04:23:24.103Z,4.77
2019-04-29T04:25:52.549Z,3.83
2019-04-29T04:28:20.958Z,4.23
2019-04-29T04:30:49.381Z,7.20
2019-04-29T04:33:17.795Z,5.10
2019-04-29T04:35:46.224Z,5.40
2019-04-29T04:38:14.697Z,5.83
2019-04-29T04:40:44.784Z,3.90
2019-04-29T04:43:13.188Z,6.87
2019-04-29T04:45:41.653Z,4.13
2019-04-29T04:48:10.068Z,10.23
2019-04-29T04:50:38.486Z,4.00
2019-04-29T04:53:07.211Z,4.20
2019-04-29T04:55:37.317Z,4.10
2019-04-29T04:58:05.760Z,3.33
2019-04-29T05:00:35.814Z,4.40
2019-04-29T05:03:04.296Z,4.03
2019-04-29T05:05:32.811Z,7.80
2019-04-29T05:08:01.258Z,8.50
2019-04-29T05:10:29.691Z,3.60
2019-04-29T05:12:58.095Z,6.20
2019-04-29T05:15:26.525Z,3.50
2019-04-29T05:17:54.976Z,2.93
2019-04-29T05:20:23.401Z,3.17
2019-04-29T05:23:01.265Z,5.93
2019-04-29T05:25:33.329Z,3.17
2019-04-29T05:28:02.314Z,6.13
2019-04-29T05:30:30.707Z,2.70
2019-04-29T05:33:05.035Z,39.00
2019-04-29T05:36:01.881Z,9.53
2019-04-29T05:38:30.369Z,5.73
2019-04-29T05:41:01.779Z,3.50
2019-04-29T05:46:30.063Z,3.40
2019-04-29T05:49:02.409Z,2.80
2019-04-29T05:51:38.306Z,3.53
2019-04-29T05:54:11.610Z,3.50
2019-04-29T05:56:42.866Z,2.87
2019-04-29T05:59:17.124Z,7.80
2019-04-29T06:01:49.015Z,3.83
2019-04-29T06:04:21.459Z,3.00
2019-04-29T06:06:47.725Z,3.63
2019-04-29T06:09:18.413Z,2.73
2019-04-29T06:11:51.335Z,4.27
2019-04-29T06:14:24.956Z,4.53
2019-04-29T06:16:57.560Z,5.87
2019-04-29T06:19:25.389Z,11.20
2019-04-29T06:21:56.183Z,4.80
2019-04-29T06:24:25.980Z,7.90
2019-04-29T06:26:58.913Z,5.40
2019-04-29T06:29:27.823Z,7.67
2019-04-29T06:31:59.033Z,7.00
2019-04-29T06:34:27.649Z,7.00
2019-04-29T06:37:01.050Z,7.30
2019-04-29T06:39:32.671Z,9.43
2019-04-29T06:42:10.273Z,9.80
2019-04-29T06:44:44.501Z,10.10
2019-04-29T06:47:17.236Z,8.23
2019-04-29T06:49:50.024Z,11.53
2019-04-29T06:52:19.753Z,9.80
2019-04-29T06:54:48.252Z,12.83
2019-04-29T06:57:19.135Z,7.30
2019-04-29T06:59:54.611Z,8.90
2019-04-29T07:02:26.254Z,10.43
2019-04-29T07:05:03.441Z,7.03
2019-04-29T07:07:35.319Z,8.70
2019-04-29T07:10:08.354Z,13.03
2019-04-29T07:12:42.856Z,17.93
2019-04-29T07:15:16.015Z,11.83
2019-04-29T07:17:51.035Z,11.27
2019-04-29T07:20:17.495Z,12.67
2019-04-29T07:22:45.945Z,10.17
2019-04-29T07:25:17.702Z,7.70
2019-04-29T07:30:29.325Z,12.70
2019-04-29T07:33:00.489Z,12.63
2019-04-29T07:35:33.757Z,13.07
2019-04-29T07:38:08.615Z,16.53
2019-04-29T07:40:43.447Z,17.03
2019-04-29T07:43:17.085Z,29.53
2019-04-29T07:46:06.836Z,19.97
2019-04-29T07:48:41.888Z,36.07
2019-04-29T07:51:13.421Z,13.93
2019-04-29T07:56:18.223Z,22.03
2019-04-29T07:58:48.570Z,16.17
2019-04-29T08:01:19.869Z,16.23
2019-04-29T08:03:49.959Z,12.80
2019-04-29T08:06:23.867Z,14.37
2019-04-29T08:09:07.082Z,22.40
2019-04-29T08:11:31.555Z,14.60
2019-04-29T08:14:05.265Z,14.17
2019-04-29T08:16:38.604Z,16.33
2019-04-29T08:21:45.590Z,26.73
2019-04-29T08:24:15.768Z,17.00
2019-04-29T08:26:47.752Z,19.97
2019-04-29T08:29:16.007Z,21.90
2019-04-29T08:31:51.957Z,16.30
2019-04-29T08:34:24.445Z,16.17
2019-04-29T08:36:56.016Z,22.37
2019-04-29T08:39:31.642Z,17.47
2019-04-29T08:42:08.958Z,16.07
2019-04-29T08:44:44.447Z,18.00
2019-04-29T08:47:32.003Z,16.23
2019-04-29T08:49:52.123Z,18.33
2019-04-29T08:52:22.421Z,14.67
2019-04-29T08:54:57.378Z,23.87
2019-04-29T08:57:31.788Z,29.93
2019-04-29T09:00:05.555Z,19.53
2019-04-29T09:02:41.250Z,18.47
2019-04-29T09:05:13.230Z,17.20
2019-04-29T09:07:47.461Z,19.20
2019-04-29T09:10:21.695Z,15.33
2019-04-29T09:12:56.136Z,15.50
2019-04-29T09:15:28.699Z,13.57
2019-04-29T09:18:00.562Z,19.17
2019-04-29T09:20:34.967Z,17.57
2019-04-29T09:23:08.838Z,15.30
2019-04-29T09:25:40.057Z,24.13
2019-04-29T09:28:14.310Z,17.83
2019-04-29T09:30:41.245Z,16.80
2019-04-29T09:33:13.202Z,13.00
2019-04-29T09:35:47.091Z,17.10
2019-04-29T09:38:21.340Z,13.13
2019-04-29T09:40:59.817Z,10.97
2019-04-29T09:43:33.895Z,14.37
2019-04-29T09:46:04.007Z,15.83
2019-04-29T09:48:38.532Z,15.30
2019-04-29T09:51:17.371Z,15.13
2019-04-29T09:53:46.962Z,21.03
2019-04-29T09:56:21.141Z,15.97
2019-04-29T09:58:53.218Z,16.60
2019-04-29T10:01:33.132Z,12.80
2019-04-29T10:04:18.450Z,13.30
2019-04-29T10:06:50.919Z,19.30
2019-04-29T10:09:24.024Z,15.00
2019-04-29T10:11:57.036Z,13.60
2019-04-29T10:14:28.899Z,14.20
2019-04-29T10:17:20.323Z,10.37
2019-04-29T10:19:53.221Z,12.93
2019-04-29T10:22:21.906Z,11.33
2019-04-29T10:24:50.359Z,11.83
2019-04-29T10:27:29.511Z,11.30
2019-04-29T10:29:58.098Z,13.90
2019-04-29T10:32:30.231Z,14.00
2019-04-29T10:35:08.744Z,15.03
2019-04-29T10:37:37.321Z,17.10
2019-04-29T10:40:13.675Z,16.03
2019-04-29T10:42:51.160Z,13.80
2019-04-29T10:45:28.673Z,15.70
2019-04-29T10:48:08.661Z,15.50
2019-04-29T10:50:54.041Z,15.57
2019-04-29T10:53:23.015Z,12.23
2019-04-29T10:55:53.171Z,19.07
2019-04-29T10:58:30.222Z,17.17
2019-04-29T11:01:18.074Z,19.07
2019-04-29T11:03:49.727Z,27.00
2019-04-29T11:06:23.527Z,21.17
2019-04-29T11:08:59.600Z,19.07
2019-04-29T11:11:33.507Z,24.43
2019-04-29T11:14:07.401Z,22.53
2019-04-29T11:16:46.580Z,21.53
2019-04-29T11:19:15.032Z,26.43
2019-04-29T11:21:47.994Z,19.30
2019-04-29T11:24:21.870Z,19.57
2019-04-29T11:27:11.236Z,24.00
2019-04-29T11:29:31.638Z,16.63
2019-04-29T11:32:05.296Z,22.30
2019-04-29T11:34:38.213Z,18.47
2019-04-29T11:37:17.768Z,23.83
2019-04-29T11:39:50.302Z,27.30
2019-04-29T11:42:22.980Z,19.43
2019-04-29T11:45:02.120Z,21.87
2019-04-29T11:47:30.949Z,23.10
2019-04-29T11:50:07.576Z,24.97
2019-04-29T11:52:39.421Z,26.73
2019-04-29T11:55:13.946Z,22.00
2019-04-29T11:57:50.349Z,30.53
2019-04-29T12:00:38.664Z,20.23
2019-04-29T12:03:14.418Z,22.10
2019-04-29T12:05:49.175Z,19.70
2019-04-29T12:08:18.618Z,19.33
2019-04-29T12:11:06.082Z,20.83
2019-04-29T12:16:19.707Z,21.13
2019-04-29T12:18:54.805Z,29.03
2019-04-29T12:21:27.571Z,18.27
2019-04-29T12:23:59.999Z,15.37
2019-04-29T12:26:35.589Z,16.67
2019-04-29T12:29:09.173Z,20.60
2019-04-29T12:31:44.827Z,22.20
2019-04-29T12:34:19.799Z,18.67
2019-04-29T12:36:56.151Z,16.60
2019-04-29T12:39:44.748Z,15.20
2019-04-29T12:42:30.670Z,14.73
2019-04-29T12:45:03.051Z,14.57
2019-04-29T12:47:37.851Z,15.20
2019-04-29T12:50:12.341Z,19.10
2019-04-29T12:52:43.398Z,22.70
2019-04-29T12:55:29.487Z,11.60
2019-04-29T12:57:51.765Z,13.93
2019-04-29T13:00:24.108Z,12.90
2019-04-29T13:03:17.842Z,12.13
2019-04-29T13:06:09.623Z,17.47
2019-04-29T13:08:41.074Z,18.60
2019-04-29T13:11:14.787Z,11.77
2019-04-29T13:13:51.381Z,11.93
2019-04-29T13:16:42.022Z,16.43
2019-04-29T13:19:18.337Z,14.23
2019-04-29T13:21:45.825Z,12.90
2019-04-29T13:24:26.272Z,15.73
2019-04-29T13:26:53.124Z,13.23
2019-04-29T13:29:27.805Z,12.17
2019-04-29T13:32:02.704Z,13.40
2019-04-29T13:34:36.691Z,15.67
2019-04-29T13:37:18.270Z,13.80
2019-04-29T13:39:43.192Z,13.57
2019-04-29T13:42:15.626Z,12.60
2019-04-29T13:44:46.054Z,15.83
2019-04-29T13:47:19.619Z,16.50
2019-04-29T13:49:51.195Z,23.07
2019-04-29T13:52:20.194Z,16.07
2019-04-29T13:54:53.017Z,15.13
2019-04-29T13:57:24.718Z,14.23
2019-04-29T14:00:01.203Z,15.27
2019-04-29T14:02:40.369Z,14.80
2019-04-29T14:05:12.224Z,13.00
2019-04-29T14:07:43.984Z,15.07
2019-04-29T14:10:16.815Z,14.40
2019-04-29T14:12:50.403Z,16.93
2019-04-29T14:15:15.430Z,17.20
2019-04-29T14:17:45.894Z,16.20
2019-04-29T14:20:18.395Z,17.53
2019-04-29T14:22:51.818Z,15.27
2019-04-29T14:25:20.252Z,15.67
2019-04-29T14:27:48.898Z,19.13
2019-04-29T14:30:21.890Z,15.70
2019-04-29T14:32:57.112Z,17.63
2019-04-29T14:35:43.761Z,19.37
2019-04-29T14:38:12.650Z,21.60
2019-04-29T14:40:42.737Z,18.30
2019-04-29T14:43:32.005Z,17.90
2019-04-29T14:46:16.009Z,14.23
2019-04-29T14:48:43.890Z,18.60
2019-04-29T14:51:12.329Z,15.20
2019-04-29T14:53:55.750Z,13.23
2019-04-29T14:56:15.784Z,11.27
2019-04-29T14:58:47.065Z,16.00
2019-04-29T15:01:23.212Z,13.27
2019-04-29T15:03:56.172Z,14.93
2019-04-29T15:06:29.264Z,13.03
2019-04-29T15:09:02.311Z,20.50
2019-04-29T15:11:45.286Z,11.10
2019-04-29T15:14:28.505Z,11.97
2019-04-29T15:17:03.271Z,12.77
2019-04-29T15:19:43.826Z,9.23
2019-04-29T15:22:14.130Z,10.27
2019-04-29T15:24:45.292Z,10.13
2019-04-29T15:27:22.035Z,12.80
2019-04-29T15:29:52.947Z,14.47
2019-04-29T15:32:28.508Z,12.37
2019-04-29T15:34:58.192Z,11.27
2019-04-29T15:37:31.160Z,9.27
2019-04-29T15:39:59.786Z,10.53
2019-04-29T15:42:28.367Z,11.07
2019-04-29T15:45:00.394Z,12.90
2019-04-29T15:50:18.195Z,11.33
2019-04-29T15:52:42.319Z,13.33
2019-04-29T15:55:13.672Z,10.97
2019-04-29T15:57:49.728Z,13.17
2019-04-29T16:00:21.971Z,17.27
2019-04-29T16:02:44.694Z,9.37
2019-04-29T16:05:34.578Z,11.37
2019-04-29T16:08:11.410Z,11.53
2019-04-29T16:10:59.285Z,12.20
2019-04-29T16:13:31.162Z,14.93
2019-04-29T16:16:03.560Z,10.93
2019-04-29T16:18:32.216Z,11.70
2019-04-29T16:21:01.362Z,14.60
2019-04-29T16:23:32.720Z,10.77
2019-04-29T16:25:59.954Z,9.63
2019-04-29T16:28:31.555Z,8.40
2019-04-29T16:30:58.918Z,9.93
2019-04-29T16:33:29.326Z,7.13
2019-04-29T16:36:04.970Z,11.23
2019-04-29T16:38:28.096Z,8.80
2019-04-29T16:41:12.194Z,11.27
2019-04-29T16:43:47.772Z,10.20
2019-04-29T16:46:23.457Z,9.80
2019-04-29T16:48:50.955Z,9.47
2019-04-29T16:51:19.528Z,12.30
2019-04-29T16:53:48.248Z,10.73
2019-04-29T16:56:18.628Z,10.43
2019-04-29T16:58:48.036Z,11.40
2019-04-29T17:01:16.540Z,8.50
2019-04-29T17:03:45.594Z,9.60
2019-04-29T17:06:14.248Z,7.67
2019-04-29T17:09:05.002Z,7.53
2019-04-29T17:11:37.852Z,7.93
2019-04-29T17:14:10.219Z,9.90
2019-04-29T17:16:36.589Z,8.73
2019-04-29T17:19:05.548Z,11.00
2019-04-29T17:21:35.960Z,7.73
2019-04-29T17:24:04.745Z,8.40
2019-04-29T17:26:40.398Z,7.87
2019-04-29T17:29:38.529Z,8.97
2019-04-29T17:31:57.142Z,7.77
2019-04-29T17:35:14.860Z,7.60
2019-04-29T17:36:53.458Z,9.73
2019-04-29T17:39:23.041Z,8.23
2019-04-29T17:41:51.510Z,9.10
2019-04-29T17:44:30.275Z,10.97
2019-04-29T17:47:03.179Z,9.67
2019-04-29T17:49:33.308Z,9.40
2019-04-29T17:52:04.267Z,12.37
2019-04-29T17:54:39.973Z,13.23
2019-04-29T17:57:27.849Z,10.60
2019-04-29T17:59:52.249Z,11.37
2019-04-29T18:02:40.226Z,8.60
2019-04-29T18:05:28.181Z,9.47
2019-04-29T18:08:05.158Z,14.07
2019-04-29T18:10:45.691Z,16.53
2019-04-29T18:13:18.819Z,14.17
2019-04-29T18:16:00.097Z,9.60
2019-04-29T18:18:17.549Z,12.03
2019-04-29T18:20:48.120Z,24.07
2019-04-29T18:23:21.049Z,17.50
2019-04-29T18:25:51.165Z,14.87
2019-04-29T18:28:19.703Z,12.77
2019-04-29T18:30:49.878Z,10.00
2019-04-29T18:33:18.929Z,25.93
2019-04-29T18:35:48.537Z,22.83
2019-04-29T18:38:17.095Z,11.43
2019-04-29T18:40:46.773Z,10.50
2019-04-29T18:43:19.189Z,10.80
2019-04-29T18:45:55.538Z,12.60
2019-04-29T18:48:18.955Z,9.70
2019-04-29T18:50:46.436Z,8.53
2019-04-29T18:53:15.595Z,8.67
2019-04-29T18:55:45.036Z,10.40
2019-04-29T18:58:13.709Z,10.57
2019-04-29T19:00:46.144Z,10.80
2019-04-29T19:03:14.886Z,10.33
2019-04-29T19:05:45.846Z,8.30
2019-04-29T19:08:19.131Z,11.40
2019-04-29T19:10:49.899Z,16.10
2019-04-29T19:13:16.698Z,14.83
2019-04-29T19:15:48.447Z,11.07
2019-04-29T19:18:17.540Z,12.27
2019-04-29T19:20:52.134Z,9.40
2019-04-29T19:23:22.143Z,9.40
2019-04-29T19:25:49.606Z,7.37
2019-04-29T19:28:25.232Z,12.27
2019-04-29T19:30:46.247Z,8.50
2019-04-29T19:33:15.160Z,21.77
2019-04-29T19:35:45.188Z,8.77
2019-04-29T19:38:15.642Z,12.00
2019-04-29T19:40:43.981Z,11.20
2019-04-29T19:43:15.342Z,10.53
2019-04-29T19:45:44.620Z,8.37
2019-04-29T19:48:12.963Z,8.07
2019-04-29T19:50:41.425Z,8.40
2019-04-29T19:53:09.947Z,8.93
2019-04-29T19:55:43.248Z,9.73
2019-04-29T19:58:13.025Z,22.37
2019-04-29T20:00:42.487Z,17.57
2019-04-29T20:03:23.307Z,16.40
2019-04-29T20:05:46.689Z,9.77
2019-04-29T20:08:37.408Z,13.43
2019-04-29T20:10:50.713Z,12.20
2019-04-29T20:13:16.504Z,11.73
2019-04-29T20:15:47.420Z,11.93
2019-04-29T20:18:39.463Z,14.67
2019-04-29T20:21:08.898Z,15.80
2019-04-29T20:23:39.226Z,16.30
2019-04-29T20:26:15.466Z,19.83
2019-04-29T20:28:37.427Z,17.40
2019-04-29T20:31:16.411Z,17.90
2019-04-29T20:33:36.479Z,22.07
2019-04-29T20:36:06.248Z,18.87
2019-04-29T20:38:38.688Z,15.70
2019-04-29T20:41:07.913Z,16.60
2019-04-29T20:43:36.003Z,17.63
2019-04-29T20:46:05.053Z,17.50
2019-04-29T20:48:36.813Z,20.90
2019-04-29T20:51:11.649Z,19.70
2019-04-29T20:53:39.686Z,23.60
2019-04-29T20:56:11.888Z,23.40
2019-04-29T20:58:36.274Z,23.00
2019-04-29T21:01:10.872Z,24.50
2019-04-29T21:03:40.882Z,28.10
2019-04-29T21:06:07.084Z,30.23
2019-04-29T21:08:35.698Z,24.10
2019-04-29T21:11:08.624Z,23.63
2019-04-29T21:13:41.436Z,32.83
2019-04-29T21:16:15.162Z,26.87
2019-04-29T21:18:47.422Z,35.43
2019-04-29T21:21:15.193Z,27.87
2019-04-29T21:23:43.835Z,25.13
2019-04-29T21:26:12.383Z,28.13
2019-04-29T21:28:41.765Z,29.67
2019-04-29T21:31:11.794Z,31.60
2019-04-29T21:33:41.485Z,27.53
2019-04-29T21:36:15.406Z,35.00
2019-04-29T21:39:01.574Z,36.47
2019-04-29T21:41:42.171Z,34.87
2019-04-29T21:44:10.711Z,31.77
2019-04-29T21:46:40.485Z,37.27
2019-04-29T21:49:11.931Z,34.30
2019-04-29T21:51:41.749Z,35.43
2019-04-29T21:54:09.642Z,37.63
2019-04-29T21:56:39.715Z,35.57
2019-04-29T21:59:11.963Z,35.13
2019-04-29T22:01:38.957Z,33.70
2019-04-29T22:04:07.487Z,39.23
2019-04-29T22:06:35.932Z,34.20
2019-04-29T22:09:07.621Z,37.03
2019-04-29T22:11:43.143Z,35.73
2019-04-29T22:14:09.895Z,35.30
2019-04-29T22:16:37.027Z,33.53
2019-04-29T22:19:05.547Z,37.43
2019-04-29T22:21:35.883Z,41.10
2019-04-29T22:24:06.184Z,32.20
2019-04-29T22:26:35.046Z,35.83
2019-04-29T22:29:03.733Z,33.20
2019-04-29T22:31:33.683Z,35.97
2019-04-29T22:34:02.490Z,33.00
2019-04-29T22:36:31.112Z,33.83
2019-04-29T22:38:59.575Z,37.63
2019-04-29T22:41:48.693Z,39.17
2019-04-29T22:44:21.747Z,39.83
2019-04-29T22:46:48.159Z,44.07
2019-04-29T22:49:24.231Z,38.90
2019-04-29T22:51:49.693Z,43.23
2019-04-29T22:54:22.106Z,37.20
2019-04-29T22:56:52.168Z,40.50
2019-04-29T22:59:19.086Z,45.30
2019-04-29T23:01:50.441Z,44.93
2019-04-29T23:04:18.771Z,42.70
2019-04-29T23:06:48.138Z,40.37
2019-04-29T23:09:16.716Z,49.03
2019-04-29T23:11:47.365Z,39.63
2019-04-29T23:14:15.796Z,38.03
2019-04-29T23:16:45.429Z,44.13
2019-04-29T23:19:17.885Z,45.80
2019-04-29T23:22:05.913Z,37.97
2019-04-29T23:24:51.312Z,37.90
2019-04-29T23:27:19.590Z,37.13
2019-04-29T23:29:48.281Z,40.90
2019-04-29T23:32:16.724Z,40.10
2019-04-29T23:34:45.140Z,42.87
2019-04-29T23:37:13.598Z,40.37
2019-04-29T23:39:43.208Z,41.30
2019-04-29T23:42:12.652Z,40.03
2019-04-29T23:44:42.410Z,41.73
2019-04-29T23:47:12.225Z,41.00
2019-04-29T23:49:42.825Z,37.80
2019-04-29T23:52:11.561Z,38.80
2019-04-29T23:54:45.574Z,39.33
2019-04-29T23:57:16.401Z,37.57
